createdAt,value
2023-04-17T00:01:07.674Z,16.94
2023-04-17T00:03:37.969Z,16.95
2023-04-17T00:06:06.661Z,16.92
2023-04-17T00:08:35.300Z,16.81
2023-04-17T00:11:07.915Z,16.83
2023-04-17T00:13:37.627Z,16.82
2023-04-17T00:16:06.361Z,16.69
2023-04-17T00:18:34.621Z,16.86
2023-04-17T00:21:04.604Z,16.88
2023-04-17T00:23:33.106Z,16.90
2023-04-17T00:26:01.475Z,17.00
2023-04-17T00:28:29.779Z,16.60
2023-04-17T00:30:59.029Z,16.47
2023-04-17T00:33:27.262Z,16.45
2023-04-17T00:35:55.552Z,16.43
2023-04-17T00:38:25.211Z,16.37
2023-04-17T00:40:53.610Z,16.31
2023-04-17T00:43:21.885Z,16.28
2023-04-17T00:45:50.507Z,16.20
2023-04-17T00:48:19.406Z,16.23
2023-04-17T00:50:47.686Z,16.25
2023-04-17T00:53:16.235Z,16.36
2023-04-17T00:55:46.241Z,16.22
2023-04-17T00:58:14.723Z,16.23
2023-04-17T01:00:42.982Z,16.16
2023-04-17T01:03:12.020Z,16.16
2023-04-17T01:05:40.786Z,16.15
2023-04-17T01:08:09.046Z,16.02
2023-04-17T01:10:37.418Z,15.97
2023-04-17T01:13:07.943Z,16.00
2023-04-17T01:15:37.400Z,16.11
2023-04-17T01:18:06.570Z,16.05
2023-04-17T01:20:34.960Z,16.23
2023-04-17T01:23:03.265Z,16.30
2023-04-17T01:25:32.849Z,16.48
2023-04-17T01:28:01.654Z,16.65
2023-04-17T01:30:29.922Z,16.71
2023-04-17T01:32:58.238Z,16.77
2023-04-17T01:35:26.524Z,16.56
2023-04-17T01:37:54.748Z,16.57
2023-04-17T01:40:24.918Z,16.54
2023-04-17T01:42:55.140Z,16.61
2023-04-17T01:45:23.361Z,16.82
2023-04-17T01:47:51.648Z,17.13
2023-04-17T01:50:20.090Z,17.00
2023-04-17T01:52:48.366Z,16.63
2023-04-17T01:55:16.608Z,16.40
2023-04-17T01:57:44.915Z,16.74
2023-04-17T02:00:15.514Z,16.78
2023-04-17T02:02:43.775Z,16.84
2023-04-17T02:05:12.102Z,17.02
2023-04-17T02:07:40.345Z,17.09
2023-04-17T02:10:09.624Z,17.19
2023-04-17T02:12:37.876Z,17.27
2023-04-17T02:15:07.429Z,17.59
2023-04-17T02:17:37.053Z,17.51
2023-04-17T02:20:07.519Z,17.70
2023-04-17T02:22:35.879Z,17.96
2023-04-17T02:25:04.307Z,18.06
2023-04-17T02:27:32.646Z,18.10
2023-04-17T02:30:01.095Z,18.21
2023-04-17T02:32:29.382Z,17.96
2023-04-17T02:34:59.085Z,18.03
2023-04-17T02:37:27.339Z,17.96
2023-04-17T02:39:55.813Z,18.08
2023-04-17T02:42:24.177Z,17.97
2023-04-17T02:44:53.812Z,17.83
2023-04-17T02:47:23.149Z,18.24
2023-04-17T02:49:51.668Z,18.23
2023-04-17T02:52:21.352Z,18.19
2023-04-17T02:54:49.710Z,17.92
2023-04-17T02:57:17.984Z,18.11
2023-04-17T02:59:46.231Z,18.04
2023-04-17T03:02:14.687Z,18.25
2023-04-17T03:04:44.104Z,17.96
2023-04-17T03:07:13.350Z,18.21
2023-04-17T03:09:42.966Z,18.14
2023-04-17T03:12:11.275Z,17.94
2023-04-17T03:14:39.533Z,18.36
2023-04-17T03:17:07.820Z,18.32
2023-04-17T03:19:36.130Z,18.15
2023-04-17T03:22:04.719Z,18.14
2023-04-17T03:24:33.111Z,17.65
2023-04-17T03:27:02.943Z,17.77
2023-04-17T03:29:31.362Z,17.37
2023-04-17T03:31:59.607Z,18.20
2023-04-17T03:34:29.114Z,18.36
2023-04-17T03:36:57.361Z,18.19
2023-04-17T03:39:25.677Z,18.09
2023-04-17T03:41:54.019Z,18.14
2023-04-17T03:44:23.691Z,17.68
2023-04-17T03:46:51.951Z,17.79
2023-04-17T03:49:20.191Z,17.63
2023-04-17T03:51:48.492Z,17.64
2023-04-17T03:54:16.711Z,17.37
2023-04-17T03:56:44.918Z,17.46
2023-04-17T03:59:13.343Z,17.38
2023-04-17T04:01:45.381Z,17.44
2023-04-17T04:04:14.969Z,17.67
2023-04-17T04:06:43.366Z,17.65
2023-04-17T04:09:11.904Z,17.68
2023-04-17T04:11:40.335Z,17.70
2023-04-17T04:14:08.587Z,17.34
2023-04-17T04:16:37.222Z,17.27
2023-04-17T04:19:06.948Z,16.78
2023-04-17T04:21:35.543Z,16.71
2023-04-17T04:24:03.808Z,17.02
2023-04-17T04:26:33.269Z,17.17
2023-04-17T04:29:01.605Z,17.54
2023-04-17T04:31:30.660Z,17.86
2023-04-17T04:34:01.342Z,17.87
2023-04-17T04:36:31.273Z,18.18
2023-04-17T04:39:01.021Z,18.06
2023-04-17T04:41:30.097Z,18.09
2023-04-17T04:43:58.476Z,18.09
2023-04-17T04:46:26.747Z,18.07
2023-04-17T04:48:55.052Z,17.94
2023-04-17T04:51:23.446Z,17.64
2023-04-17T04:53:53.040Z,17.49
2023-04-17T04:56:21.649Z,17.98
2023-04-17T04:58:49.877Z,17.81
2023-04-17T05:01:18.640Z,17.37
2023-04-17T05:03:47.078Z,17.40
2023-04-17T05:06:15.875Z,18.21
2023-04-17T05:08:45.079Z,18.45
2023-04-17T05:11:15.358Z,18.85
2023-04-17T05:13:43.662Z,18.80
2023-04-17T05:16:12.043Z,18.79
2023-04-17T05:18:40.277Z,18.86
2023-04-17T05:21:08.511Z,18.55
2023-04-17T05:23:36.805Z,18.36
2023-04-17T05:26:05.806Z,17.55
2023-04-17T05:28:35.622Z,17.94
2023-04-17T05:31:04.098Z,17.81
2023-04-17T05:33:32.416Z,18.37
2023-04-17T05:36:00.909Z,18.58
2023-04-17T05:38:29.227Z,18.58
2023-04-17T05:40:57.502Z,18.98
2023-04-17T05:43:25.815Z,19.22
2023-04-17T05:45:55.650Z,19.45
2023-04-17T05:48:24.118Z,19.31
2023-04-17T05:50:52.350Z,19.30
2023-04-17T05:53:20.714Z,19.43
2023-04-17T05:55:48.960Z,19.19
2023-04-17T05:58:23.909Z,19.04
2023-04-17T06:00:53.225Z,19.29
2023-04-17T06:03:23.640Z,19.42
2023-04-17T06:05:52.527Z,19.19
2023-04-17T06:08:21.575Z,19.08
2023-04-17T06:10:50.818Z,19.02
2023-04-17T06:13:19.569Z,19.02
2023-04-17T06:15:47.897Z,19.26
2023-04-17T06:18:17.559Z,19.22
2023-04-17T06:20:47.395Z,19.28
2023-04-17T06:23:15.710Z,18.84
2023-04-17T06:25:44.065Z,18.90
2023-04-17T06:28:12.305Z,19.32
2023-04-17T06:30:40.818Z,18.73
2023-04-17T06:33:09.219Z,18.65
2023-04-17T06:35:37.760Z,18.80
2023-04-17T06:38:08.979Z,18.87
2023-04-17T06:40:37.290Z,18.63
2023-04-17T06:43:05.554Z,18.94
2023-04-17T06:45:34.113Z,19.19
2023-04-17T06:48:02.474Z,19.24
2023-04-17T06:50:30.918Z,19.51
2023-04-17T06:52:59.178Z,19.05
2023-04-17T06:55:28.976Z,19.27
2023-04-17T06:57:57.268Z,19.46
2023-04-17T07:00:25.858Z,18.95
2023-04-17T07:02:54.302Z,19.20
2023-04-17T07:05:22.702Z,19.09
2023-04-17T07:07:50.985Z,19.09
2023-04-17T07:10:19.647Z,19.37
2023-04-17T07:12:49.344Z,19.39
2023-04-17T07:15:17.713Z,19.24
2023-04-17T07:17:46.067Z,19.06
2023-04-17T07:20:14.282Z,18.34
2023-04-17T07:22:43.250Z,18.74
2023-04-17T07:25:11.531Z,18.77
2023-04-17T07:27:39.788Z,19.21
2023-04-17T07:30:10.452Z,19.51
2023-04-17T07:32:38.532Z,19.88
2023-04-17T07:35:07.745Z,19.90
2023-04-17T07:37:37.050Z,20.10
2023-04-17T07:40:10.300Z,20.22
2023-04-17T07:42:38.723Z,20.46
2023-04-17T07:45:10.038Z,20.49
2023-04-17T07:47:38.461Z,20.94
2023-04-17T07:50:08.116Z,20.14
2023-04-17T07:52:36.564Z,19.87
2023-04-17T07:55:05.253Z,20.44
2023-04-17T07:57:33.606Z,20.70
2023-04-17T08:00:02.005Z,20.84
2023-04-17T08:02:31.663Z,20.74
2023-04-17T08:05:01.610Z,20.78
2023-04-17T08:07:30.090Z,20.96
2023-04-17T08:09:58.349Z,21.33
2023-04-17T08:12:26.865Z,20.50
2023-04-17T08:14:55.272Z,21.72
2023-04-17T08:17:26.532Z,21.89
2023-04-17T08:19:57.528Z,22.52
2023-04-17T08:22:26.523Z,22.62
2023-04-17T08:24:57.920Z,22.51
2023-04-17T08:27:26.485Z,22.84
2023-04-17T08:29:55.585Z,23.09
2023-04-17T08:32:23.882Z,23.31
2023-04-17T08:34:52.671Z,22.43
2023-04-17T08:37:22.320Z,22.80
2023-04-17T08:39:52.495Z,23.39
2023-04-17T08:42:20.715Z,23.65
2023-04-17T08:44:49.157Z,23.58
2023-04-17T08:47:18.687Z,23.68
2023-04-17T08:49:47.330Z,24.10
2023-04-17T08:52:16.757Z,23.98
2023-04-17T08:54:48.342Z,24.78
2023-04-17T08:57:18.171Z,24.82
2023-04-17T08:59:46.917Z,25.17
2023-04-17T09:02:15.522Z,25.08
2023-04-17T09:04:45.317Z,24.76
2023-04-17T09:07:15.997Z,25.07
2023-04-17T09:09:52.861Z,25.15
2023-04-17T09:12:21.935Z,24.92
2023-04-17T09:14:50.536Z,24.71
2023-04-17T09:17:20.470Z,25.29
2023-04-17T09:20:04.074Z,24.56
2023-04-17T09:22:32.347Z,25.04
2023-04-17T09:25:02.438Z,25.23
2023-04-17T09:27:30.801Z,25.62
2023-04-17T09:30:00.923Z,25.01
2023-04-17T09:32:30.566Z,25.67
2023-04-17T09:35:00.322Z,26.27
2023-04-17T09:37:48.696Z,25.13
2023-04-17T09:40:19.132Z,24.70
2023-04-17T09:42:56.926Z,26.05
2023-04-17T09:45:26.126Z,25.03
2023-04-17T09:47:56.786Z,25.99
2023-04-17T09:50:25.894Z,25.60
2023-04-17T09:52:55.118Z,26.17
2023-04-17T09:55:26.766Z,24.97
2023-04-17T09:57:56.629Z,24.79
2023-04-17T10:00:27.081Z,25.29
2023-04-17T10:02:56.162Z,25.67
2023-04-17T10:05:26.063Z,26.04
2023-04-17T10:07:54.400Z,25.98
2023-04-17T10:10:25.319Z,24.77
2023-04-17T10:12:55.901Z,25.99
2023-04-17T10:15:24.601Z,25.65
2023-04-17T10:17:53.067Z,25.12
2023-04-17T10:20:38.150Z,25.17
2023-04-17T10:23:34.643Z,24.97
2023-04-17T10:26:38.839Z,24.55
2023-04-17T10:29:08.537Z,23.87
2023-04-17T10:32:24.274Z,24.16
2023-04-17T10:34:53.625Z,25.45
2023-04-17T10:37:23.297Z,25.68
2023-04-17T10:39:54.200Z,24.71
2023-04-17T10:42:23.775Z,24.64
2023-04-17T10:44:58.720Z,23.66
2023-04-17T10:47:31.931Z,23.81
2023-04-17T10:50:01.072Z,22.85
2023-04-17T10:52:44.670Z,23.79
2023-04-17T10:55:17.433Z,22.81
2023-04-17T10:58:00.818Z,23.11
2023-04-17T11:00:33.109Z,23.29
2023-04-17T11:03:02.973Z,22.43
2023-04-17T11:05:32.275Z,22.11
2023-04-17T11:08:00.756Z,23.12
2023-04-17T11:10:29.191Z,23.53
2023-04-17T11:12:57.559Z,23.28
2023-04-17T11:15:29.460Z,22.85
2023-04-17T11:18:00.038Z,22.46
2023-04-17T11:20:30.485Z,22.18
2023-04-17T11:23:02.368Z,22.90
2023-04-17T11:25:33.764Z,22.47
2023-04-17T11:28:03.755Z,23.29
2023-04-17T11:30:33.529Z,22.23
2023-04-17T11:33:04.396Z,22.74
2023-04-17T11:35:34.504Z,22.67
2023-04-17T11:38:14.386Z,23.41
2023-04-17T11:40:47.171Z,23.72
2023-04-17T11:43:15.796Z,23.65
2023-04-17T11:45:45.887Z,23.98
2023-04-17T11:48:16.763Z,23.39
2023-04-17T11:50:45.772Z,22.54
2023-04-17T11:53:15.656Z,22.86
2023-04-17T11:55:44.609Z,23.16
2023-04-17T11:58:14.119Z,22.83
2023-04-17T12:00:43.520Z,23.68
2023-04-17T12:03:35.777Z,22.85
2023-04-17T12:06:05.929Z,23.69
2023-04-17T12:08:43.716Z,23.80
2023-04-17T12:11:19.641Z,23.17
2023-04-17T12:13:48.177Z,23.60
2023-04-17T12:16:16.521Z,22.92
2023-04-17T12:18:46.735Z,24.75
2023-04-17T12:21:15.366Z,24.10
2023-04-17T12:23:43.980Z,22.92
2023-04-17T12:26:12.325Z,22.73
2023-04-17T12:28:40.705Z,23.19
2023-04-17T12:31:08.999Z,22.75
2023-04-17T12:33:37.376Z,23.14
2023-04-17T12:36:08.093Z,24.10
2023-04-17T12:38:36.475Z,23.37
2023-04-17T12:41:04.753Z,23.70
2023-04-17T12:43:33.691Z,23.12
2023-04-17T12:46:02.960Z,23.31
2023-04-17T12:48:33.003Z,24.92
2023-04-17T12:51:01.681Z,25.51
2023-04-17T12:53:36.317Z,25.34
2023-04-17T12:56:09.256Z,25.55
2023-04-17T12:58:54.833Z,24.59
2023-04-17T13:01:23.469Z,24.37
2023-04-17T13:03:52.065Z,25.07
2023-04-17T13:06:21.513Z,25.10
2023-04-17T13:08:51.199Z,24.14
2023-04-17T13:11:19.476Z,24.41
2023-04-17T13:13:47.744Z,24.16
2023-04-17T13:16:16.039Z,26.17
2023-04-17T13:18:44.426Z,26.57
2023-04-17T13:21:12.729Z,26.73
2023-04-17T13:23:40.952Z,26.19
2023-04-17T13:26:10.626Z,26.46
2023-04-17T13:28:39.862Z,27.32
2023-04-17T13:31:08.252Z,27.74
2023-04-17T13:33:36.698Z,25.39
2023-04-17T13:36:05.539Z,28.10
2023-04-17T13:38:34.113Z,26.67
2023-04-17T13:41:02.452Z,26.84
2023-04-17T13:43:32.134Z,27.31
2023-04-17T13:46:00.412Z,27.29
2023-04-17T13:48:28.766Z,27.23
2023-04-17T13:50:56.977Z,27.35
2023-04-17T13:53:25.257Z,25.65
2023-04-17T13:55:53.568Z,26.07
2023-04-17T13:58:21.829Z,28.20
2023-04-17T14:00:51.721Z,28.16
2023-04-17T14:03:20.162Z,28.82
2023-04-17T14:05:48.577Z,28.11
2023-04-17T14:08:16.942Z,28.23
2023-04-17T14:10:45.250Z,29.15
2023-04-17T14:13:13.460Z,29.34
2023-04-17T14:15:41.981Z,28.84
2023-04-17T14:18:11.655Z,25.78
2023-04-17T14:20:40.718Z,23.44
2023-04-17T14:23:08.996Z,22.89
2023-04-17T14:25:37.264Z,23.69
2023-04-17T14:28:05.539Z,23.08
2023-04-17T14:30:33.911Z,24.41
2023-04-17T14:33:02.284Z,23.84
2023-04-17T14:35:32.927Z,24.50
2023-04-17T14:38:01.101Z,25.30
2023-04-17T14:40:29.378Z,25.14
2023-04-17T14:42:57.626Z,25.33
2023-04-17T14:45:25.893Z,24.44
2023-04-17T14:47:54.253Z,23.12
2023-04-17T14:50:22.534Z,22.18
2023-04-17T14:52:52.542Z,21.80
2023-04-17T14:55:20.788Z,21.86
2023-04-17T14:57:49.064Z,21.81
2023-04-17T15:00:18.117Z,21.96
2023-04-17T15:02:46.636Z,21.48
2023-04-17T15:05:18.805Z,21.40
2023-04-17T15:07:47.233Z,21.36
2023-04-17T15:10:17.309Z,20.83
2023-04-17T15:12:45.598Z,21.25
2023-04-17T15:15:13.879Z,21.54
2023-04-17T15:17:42.397Z,21.97
2023-04-17T15:20:11.163Z,22.02
2023-04-17T15:22:39.395Z,22.54
2023-04-17T15:25:08.168Z,22.17
2023-04-17T15:27:37.798Z,22.09
2023-04-17T15:30:08.879Z,23.11
2023-04-17T15:32:37.455Z,22.73
2023-04-17T15:35:06.516Z,22.37
2023-04-17T15:37:34.856Z,22.53
2023-04-17T15:40:03.427Z,22.70
2023-04-17T15:42:31.803Z,22.16
2023-04-17T15:45:02.236Z,22.22
2023-04-17T15:47:30.520Z,22.39
2023-04-17T15:49:58.920Z,21.84
2023-04-17T15:52:27.218Z,22.01
2023-04-17T15:54:55.513Z,23.00
2023-04-17T15:57:24.249Z,22.74
2023-04-17T15:59:52.513Z,22.59
2023-04-17T16:02:22.314Z,23.46
2023-04-17T16:04:50.637Z,22.61
2023-04-17T16:07:19.970Z,22.26
2023-04-17T16:09:48.287Z,23.07
2023-04-17T16:12:16.529Z,23.10
2023-04-17T16:14:44.883Z,23.32
2023-04-17T16:17:13.117Z,23.37
2023-04-17T16:19:42.770Z,23.52
2023-04-17T16:22:11.046Z,23.67
2023-04-17T16:24:39.368Z,23.71
2023-04-17T16:27:07.663Z,23.70
2023-04-17T16:29:36.012Z,23.74
2023-04-17T16:32:04.298Z,23.52
2023-04-17T16:34:32.629Z,23.79
2023-04-17T16:37:03.376Z,23.59
2023-04-17T16:39:31.692Z,23.79
2023-04-17T16:41:59.992Z,23.99
2023-04-17T16:44:28.758Z,24.10
2023-04-17T16:49:28.763Z,24.57
2023-04-17T16:51:56.957Z,24.92
2023-04-17T16:54:26.608Z,25.08
2023-04-17T16:56:54.897Z,24.84
2023-04-17T16:59:23.246Z,25.06
2023-04-17T17:01:52.712Z,25.13
2023-04-17T17:04:21.067Z,25.13
2023-04-17T17:06:49.356Z,25.12
2023-04-17T17:09:17.708Z,24.70
2023-04-17T17:11:47.455Z,24.87
2023-04-17T17:14:16.273Z,24.73
2023-04-17T17:16:45.379Z,24.80
2023-04-17T17:19:14.698Z,24.68
2023-04-17T17:21:43.811Z,24.62
2023-04-17T17:24:12.097Z,24.60
2023-04-17T17:26:40.400Z,24.55
2023-04-17T17:29:10.098Z,24.51
2023-04-17T17:31:38.606Z,24.52
2023-04-17T17:34:22.498Z,24.44
2023-04-17T17:36:54.764Z,24.23
2023-04-17T17:39:23.148Z,24.25
2023-04-17T17:41:51.529Z,23.22
2023-04-17T17:44:33.975Z,22.09
2023-04-17T17:47:03.847Z,21.97
2023-04-17T17:49:33.345Z,21.79
2023-04-17T17:52:01.719Z,20.70
2023-04-17T17:54:29.945Z,21.15
2023-04-17T17:56:58.142Z,21.93
2023-04-17T17:59:26.751Z,21.56
2023-04-17T18:01:57.377Z,21.48
2023-04-17T18:04:26.070Z,21.09
2023-04-17T18:06:54.765Z,21.55
2023-04-17T18:09:23.009Z,20.96
2023-04-17T18:11:51.297Z,21.74
2023-04-17T18:14:19.571Z,22.18
2023-04-17T18:16:48.517Z,22.07
2023-04-17T18:19:18.199Z,22.68
2023-04-17T18:21:47.779Z,22.58
2023-04-17T18:24:16.222Z,22.89
2023-04-17T18:26:44.619Z,22.65
2023-04-17T18:29:12.832Z,22.79
2023-04-17T18:31:41.100Z,22.80
2023-04-17T18:34:09.890Z,22.25
2023-04-17T18:36:39.514Z,22.37
2023-04-17T18:39:07.788Z,22.74
2023-04-17T18:41:36.009Z,22.82
2023-04-17T18:44:04.217Z,22.86
2023-04-17T18:46:32.493Z,22.91
2023-04-17T18:49:00.834Z,22.92
2023-04-17T18:51:29.203Z,23.03
2023-04-17T18:53:58.888Z,23.07
2023-04-17T18:56:27.220Z,23.06
2023-04-17T18:58:55.512Z,23.10
2023-04-17T19:01:23.860Z,23.09
2023-04-17T19:03:52.989Z,21.92
2023-04-17T19:06:21.324Z,22.50
2023-04-17T19:08:49.545Z,22.19
2023-04-17T19:11:19.565Z,22.77
2023-04-17T19:13:47.880Z,22.89
2023-04-17T19:16:16.165Z,22.77
2023-04-17T19:18:44.481Z,22.53
2023-04-17T19:21:12.836Z,22.35
2023-04-17T19:23:41.266Z,22.15
2023-04-17T19:26:10.157Z,21.71
2023-04-17T19:28:39.818Z,21.65
2023-04-17T19:31:08.300Z,21.61
2023-04-17T19:33:36.795Z,21.87
2023-04-17T19:36:05.203Z,21.65
2023-04-17T19:38:33.610Z,21.82
2023-04-17T19:41:14.510Z,21.98
2023-04-17T19:43:44.347Z,21.97
2023-04-17T19:46:14.288Z,21.55
2023-04-17T19:48:44.779Z,21.39
2023-04-17T19:51:14.337Z,21.13
2023-04-17T19:53:43.983Z,21.41
2023-04-17T19:56:12.263Z,21.54
2023-04-17T19:58:41.429Z,21.62
2023-04-17T20:01:11.198Z,21.57
2023-04-17T20:03:42.190Z,21.47
2023-04-17T20:06:10.695Z,21.49
2023-04-17T20:08:38.922Z,21.49
2023-04-17T20:11:07.331Z,21.38
2023-04-17T20:13:35.783Z,21.60
2023-04-17T20:16:04.052Z,21.48
2023-04-17T20:18:37.403Z,21.51
2023-04-17T20:21:07.151Z,21.54
2023-04-17T20:23:35.541Z,21.61
2023-04-17T20:26:03.929Z,21.68
2023-04-17T20:28:32.157Z,21.54
2023-04-17T20:31:00.625Z,21.62
2023-04-17T20:33:29.018Z,21.54
2023-04-17T20:35:58.753Z,21.67
2023-04-17T20:38:26.991Z,21.56
2023-04-17T20:40:55.273Z,21.52
2023-04-17T20:43:23.490Z,21.52
2023-04-17T20:45:51.788Z,21.52
2023-04-17T20:48:20.094Z,21.55
2023-04-17T20:50:48.378Z,21.10
2023-04-17T20:53:18.061Z,20.98
2023-04-17T20:55:47.189Z,20.84
2023-04-17T20:58:15.548Z,21.22
2023-04-17T21:00:54.301Z,21.05
2023-04-17T21:03:30.176Z,21.01
2023-04-17T21:05:58.592Z,21.09
2023-04-17T21:08:28.243Z,21.19
2023-04-17T21:10:56.639Z,21.30
2023-04-17T21:13:25.026Z,21.02
2023-04-17T21:15:53.452Z,21.08
2023-04-17T21:18:21.812Z,20.98
2023-04-17T21:20:50.044Z,20.55
2023-04-17T21:23:18.728Z,20.70
2023-04-17T21:25:50.482Z,20.80
2023-04-17T21:28:18.761Z,20.27
2023-04-17T21:30:47.129Z,20.28
2023-04-17T21:33:15.410Z,20.43
2023-04-17T21:35:43.637Z,20.80
2023-04-17T21:38:11.977Z,21.02
2023-04-17T21:40:50.625Z,20.70
2023-04-17T21:43:20.881Z,20.42
2023-04-17T21:45:49.983Z,20.59
2023-04-17T21:48:18.483Z,20.60
2023-04-17T21:50:46.736Z,20.94
2023-04-17T21:53:15.037Z,20.53
2023-04-17T21:55:43.318Z,20.97
2023-04-17T21:58:11.581Z,20.85
2023-04-17T22:00:41.329Z,20.48
2023-04-17T22:03:09.655Z,20.82
2023-04-17T22:05:38.089Z,20.89
2023-04-17T22:08:06.586Z,21.00
2023-04-17T22:10:34.973Z,21.00
2023-04-17T22:13:03.458Z,21.00
2023-04-17T22:15:32.000Z,20.67
2023-04-17T22:18:01.861Z,20.36
2023-04-17T22:20:30.151Z,20.80
2023-04-17T22:22:58.492Z,21.10
2023-04-17T22:25:26.766Z,20.98
2023-04-17T22:27:55.071Z,20.54
2023-04-17T22:30:23.434Z,20.99
2023-04-17T22:32:51.925Z,20.88
2023-04-17T22:35:21.552Z,20.88
2023-04-17T22:37:49.757Z,20.95
2023-04-17T22:40:18.213Z,20.93
2023-04-17T22:42:46.527Z,20.92
2023-04-17T22:45:14.882Z,20.84
2023-04-17T22:47:43.205Z,20.86
2023-04-17T22:50:11.773Z,20.64
2023-04-17T22:52:41.369Z,20.55
2023-04-17T22:55:09.853Z,20.61
2023-04-17T22:57:38.129Z,20.46
2023-04-17T23:00:08.762Z,19.96
2023-04-17T23:02:37.102Z,19.85
2023-04-17T23:05:06.497Z,20.17
2023-04-17T23:07:34.901Z,20.42
2023-04-17T23:10:04.870Z,20.36
2023-04-17T23:12:33.207Z,20.33
2023-04-17T23:15:01.527Z,20.48
2023-04-17T23:17:29.857Z,19.97
2023-04-17T23:19:58.094Z,20.20
2023-04-17T23:22:26.440Z,20.41
2023-04-17T23:24:54.752Z,20.28
2023-04-17T23:27:24.410Z,19.77
2023-04-17T23:29:52.755Z,19.73
2023-04-17T23:32:21.177Z,19.67
2023-04-17T23:34:49.423Z,19.27
2023-04-17T23:37:17.765Z,19.72
2023-04-17T23:39:46.024Z,19.84
2023-04-17T23:42:14.434Z,19.64
2023-04-17T23:44:44.084Z,19.86
2023-04-17T23:47:13.878Z,19.96
2023-04-17T23:49:42.108Z,19.34
2023-04-17T23:52:10.359Z,19.30
2023-04-17T23:54:38.623Z,19.31
2023-04-17T23:57:06.961Z,19.20
2023-04-17T23:59:35.822Z,19.33
